sensor_id;sensor_type;location;lat;lon;timestamp;pressure;altitude;pressure_sealevel;temperature;humidity
69239;BME280;56349;51.816;-0.026;2022-09-12T00:01:05;100873.21;;;26.01;36.21
69239;BME280;56349;51.816;-0.026;2022-09-12T00:03:24;100869.78;;;25.96;36.27
69239;BME280;56349;51.816;-0.026;2022-09-12T00:05:50;100870.61;;;26.18;36.32
69239;BME280;56349;51.816;-0.026;2022-09-12T00:08:15;100870.25;;;25.87;36.38
69239;BME280;56349;51.816;-0.026;2022-09-12T00:10:43;100867.44;;;25.85;36.42
69239;BME280;56349;51.816;-0.026;2022-09-12T00:13:08;100866.92;;;26.08;36.45
69239;BME280;56349;51.816;-0.026;2022-09-12T00:15:37;100865.36;;;25.79;36.48
69239;BME280;56349;51.816;-0.026;2022-09-12T00:17:59;100866.35;;;25.75;36.54
69239;BME280;56349;51.816;-0.026;2022-09-12T00:20:24;100862.72;;;25.72;36.56
69239;BME280;56349;51.816;-0.026;2022-09-12T00:22:49;100862.91;;;25.95;36.59
69239;BME280;56349;51.816;-0.026;2022-09-12T00:25:14;100864.80;;;25.65;36.66
69239;BME280;56349;51.816;-0.026;2022-09-12T00:27:39;100862.79;;;25.87;36.70
69239;BME280;56349;51.816;-0.026;2022-09-12T00:30:07;100857.45;;;25.83;36.75
69239;BME280;56349;51.816;-0.026;2022-09-12T00:32:33;100853.59;;;25.52;36.80
69239;BME280;56349;51.816;-0.026;2022-09-12T00:34:58;100852.26;;;25.76;36.84
69239;BME280;56349;51.816;-0.026;2022-09-12T00:37:33;100847.50;;;25.74;36.86
69239;BME280;56349;51.816;-0.026;2022-09-12T00:39:49;100847.44;;;25.72;36.89
69239;BME280;56349;51.816;-0.026;2022-09-12T00:42:14;100844.14;;;25.43;36.91
69239;BME280;56349;51.816;-0.026;2022-09-12T00:44:45;100839.67;;;25.68;36.94
69239;BME280;56349;51.816;-0.026;2022-09-12T00:47:12;100835.15;;;25.68;36.95
69239;BME280;56349;51.816;-0.026;2022-09-12T00:49:36;100830.71;;;25.64;36.99
69239;BME280;56349;51.816;-0.026;2022-09-12T00:52:00;100828.69;;;25.62;37.00
69239;BME280;56349;51.816;-0.026;2022-09-12T00:54:29;100827.25;;;25.34;37.03
69239;BME280;56349;51.816;-0.026;2022-09-12T00:56:49;100823.30;;;25.58;37.05
69239;BME280;56349;51.816;-0.026;2022-09-12T00:59:19;100823.98;;;25.57;37.05
69239;BME280;56349;51.816;-0.026;2022-09-12T01:01:41;100827.12;;;25.54;37.09
69239;BME280;56349;51.816;-0.026;2022-09-12T01:04:07;100832.79;;;25.25;37.06
69239;BME280;56349;51.816;-0.026;2022-09-12T01:06:34;100835.97;;;25.50;37.13
69239;BME280;56349;51.816;-0.026;2022-09-12T01:08:57;100835.51;;;25.49;37.13
69239;BME280;56349;51.816;-0.026;2022-09-12T01:11:22;100832.07;;;25.48;37.10
69239;BME280;56349;51.816;-0.026;2022-09-12T01:13:48;100829.64;;;25.46;37.16
69239;BME280;56349;51.816;-0.026;2022-09-12T01:16:13;100828.75;;;25.44;37.18
69239;BME280;56349;51.816;-0.026;2022-09-12T01:18:46;100829.10;;;25.44;37.17
69239;BME280;56349;51.816;-0.026;2022-09-12T01:21:13;100831.39;;;25.43;37.19
69239;BME280;56349;51.816;-0.026;2022-09-12T01:26:06;100828.17;;;25.38;37.21
69239;BME280;56349;51.816;-0.026;2022-09-12T01:28:36;100822.45;;;25.11;37.21
69239;BME280;56349;51.816;-0.026;2022-09-12T01:30:48;100816.31;;;25.38;37.21
69239;BME280;56349;51.816;-0.026;2022-09-12T01:33:26;100815.22;;;25.39;37.20
69239;BME280;56349;51.816;-0.026;2022-09-12T01:35:43;100812.09;;;25.37;37.20
69239;BME280;56349;51.816;-0.026;2022-09-12T01:38:09;100808.55;;;25.37;37.20
69239;BME280;56349;51.816;-0.026;2022-09-12T01:40:32;100811.55;;;25.36;37.20
69239;BME280;56349;51.816;-0.026;2022-09-12T01:43:01;100804.46;;;25.33;37.21
69239;BME280;56349;51.816;-0.026;2022-09-12T01:45:27;100798.96;;;25.30;37.25
69239;BME280;56349;51.816;-0.026;2022-09-12T01:47:50;100798.48;;;25.29;37.26
69239;BME280;56349;51.816;-0.026;2022-09-12T01:50:17;100790.86;;;25.28;37.26
69239;BME280;56349;51.816;-0.026;2022-09-12T01:52:41;100783.45;;;25.48;37.27
69239;BME280;56349;51.816;-0.026;2022-09-12T01:55:07;100781.03;;;25.25;37.27
69239;BME280;56349;51.816;-0.026;2022-09-12T01:57:32;100777.64;;;25.24;37.29
69239;BME280;56349;51.816;-0.026;2022-09-12T01:59:57;100775.00;;;25.23;37.28
69239;BME280;56349;51.816;-0.026;2022-09-12T02:02:22;100778.09;;;24.96;37.28
69239;BME280;56349;51.816;-0.026;2022-09-12T02:04:50;100785.79;;;25.42;37.31
69239;BME280;56349;51.816;-0.026;2022-09-12T02:07:13;100787.33;;;25.18;37.31
69239;BME280;56349;51.816;-0.026;2022-09-12T02:09:40;100790.86;;;25.16;37.32
69239;BME280;56349;51.816;-0.026;2022-09-12T02:12:04;100789.39;;;25.14;37.34
69239;BME280;56349;51.816;-0.026;2022-09-12T02:14:33;100788.44;;;25.11;37.37
69239;BME280;56349;51.816;-0.026;2022-09-12T02:16:57;100788.94;;;25.11;37.37
69239;BME280;56349;51.816;-0.026;2022-09-12T02:19:24;100783.78;;;25.12;37.34
69239;BME280;56349;51.816;-0.026;2022-09-12T02:21:50;100777.79;;;25.10;37.35
69239;BME280;56349;51.816;-0.026;2022-09-12T02:24:13;100773.65;;;25.09;37.36
69239;BME280;56349;51.816;-0.026;2022-09-12T02:26:40;100764.54;;;24.82;37.37
69239;BME280;56349;51.816;-0.026;2022-09-12T02:29:03;100765.81;;;25.08;37.37
69239;BME280;56349;51.816;-0.026;2022-09-12T02:31:34;100758.38;;;25.27;37.38
69239;BME280;56349;51.816;-0.026;2022-09-12T02:34:04;100755.81;;;25.06;37.38
69239;BME280;56349;51.816;-0.026;2022-09-12T02:36:29;100756.54;;;25.04;37.38
69239;BME280;56349;51.816;-0.026;2022-09-12T02:38:45;100749.03;;;25.04;37.37
69239;BME280;56349;51.816;-0.026;2022-09-12T02:41:11;100738.46;;;25.01;37.40
69239;BME280;56349;51.816;-0.026;2022-09-12T02:43:35;100735.41;;;25.01;37.40
69239;BME280;56349;51.816;-0.026;2022-09-12T02:46:00;100734.62;;;24.99;37.41
69239;BME280;56349;51.816;-0.026;2022-09-12T02:48:30;100735.77;;;25.19;37.42
69239;BME280;56349;51.816;-0.026;2022-09-12T02:50:52;100734.54;;;25.18;37.44
69239;BME280;56349;51.816;-0.026;2022-09-12T02:53:17;100730.82;;;25.17;37.44
69239;BME280;56349;51.816;-0.026;2022-09-12T02:55:43;100731.79;;;24.94;37.45
69239;BME280;56349;51.816;-0.026;2022-09-12T02:58:11;100731.90;;;25.37;37.46
69239;BME280;56349;51.816;-0.026;2022-09-12T03:00:36;100733.41;;;24.91;37.47
69239;BME280;56349;51.816;-0.026;2022-09-12T03:03:10;100730.82;;;24.91;37.45
69239;BME280;56349;51.816;-0.026;2022-09-12T03:05:29;100729.25;;;25.12;37.48
69239;BME280;56349;51.816;-0.026;2022-09-12T03:10:22;100721.79;;;25.13;37.46
69239;BME280;56349;51.816;-0.026;2022-09-12T03:12:48;100721.71;;;24.89;37.47
69239;BME280;56349;51.816;-0.026;2022-09-12T03:15:18;100722.03;;;24.87;37.48
69239;BME280;56349;51.816;-0.026;2022-09-12T03:17:42;100721.16;;;24.85;37.49
69239;BME280;56349;51.816;-0.026;2022-09-12T03:20:02;100718.07;;;24.84;37.51
69239;BME280;56349;51.816;-0.026;2022-09-12T03:22:29;100714.58;;;24.84;37.49
69239;BME280;56349;51.816;-0.026;2022-09-12T03:24:53;100712.37;;;25.28;37.49
69239;BME280;56349;51.816;-0.026;2022-09-12T03:27:24;100711.22;;;24.82;37.49
69239;BME280;56349;51.816;-0.026;2022-09-12T03:29:43;100712.57;;;24.81;37.52
69239;BME280;56349;51.816;-0.026;2022-09-12T03:32:08;100710.68;;;25.25;37.54
69239;BME280;56349;51.816;-0.026;2022-09-12T03:34:33;100709.28;;;25.03;37.58
69239;BME280;56349;51.816;-0.026;2022-09-12T03:36:58;100708.37;;;24.84;37.62
69239;BME280;56349;51.816;-0.026;2022-09-12T03:39:24;100701.73;;;24.88;37.64
69239;BME280;56349;51.816;-0.026;2022-09-12T03:41:49;100703.77;;;24.95;37.63
69239;BME280;56349;51.816;-0.026;2022-09-12T03:44:14;100703.63;;;25.05;37.60
69239;BME280;56349;51.816;-0.026;2022-09-12T03:46:40;100700.27;;;25.18;37.54
69239;BME280;56349;51.816;-0.026;2022-09-12T03:49:06;100699.21;;;25.05;37.42
69239;BME280;56349;51.816;-0.026;2022-09-12T03:51:33;100701.18;;;25.46;37.24
69239;BME280;56349;51.816;-0.026;2022-09-12T03:53:58;100698.18;;;25.60;37.05
69239;BME280;56349;51.816;-0.026;2022-09-12T03:56:23;100695.03;;;25.71;36.85
69239;BME280;56349;51.816;-0.026;2022-09-12T03:58:48;100692.80;;;25.77;36.71
69239;BME280;56349;51.816;-0.026;2022-09-12T04:01:15;100686.18;;;25.81;36.57
69239;BME280;56349;51.816;-0.026;2022-09-12T04:03:39;100687.58;;;25.57;36.47
69239;BME280;56349;51.816;-0.026;2022-09-12T04:06:05;100687.65;;;25.36;36.39
69239;BME280;56349;51.816;-0.026;2022-09-12T04:08:30;100687.26;;;25.56;36.33
69239;BME280;56349;51.816;-0.026;2022-09-12T04:11:01;100689.10;;;25.80;36.29
69239;BME280;56349;51.816;-0.026;2022-09-12T04:13:21;100691.58;;;25.74;36.29
69239;BME280;56349;51.816;-0.026;2022-09-12T04:15:56;100688.47;;;25.43;36.29
69239;BME280;56349;51.816;-0.026;2022-09-12T04:18:14;100684.38;;;25.66;36.30
69239;BME280;56349;51.816;-0.026;2022-09-12T04:20:38;100681.40;;;25.62;36.29
69239;BME280;56349;51.816;-0.026;2022-09-12T04:23:05;100681.53;;;25.56;36.33
69239;BME280;56349;51.816;-0.026;2022-09-12T04:25:30;100680.96;;;25.51;36.36
69239;BME280;56349;51.816;-0.026;2022-09-12T04:27:55;100677.94;;;25.46;36.38
69239;BME280;56349;51.816;-0.026;2022-09-12T04:30:21;100674.98;;;25.39;36.44
69239;BME280;56349;51.816;-0.026;2022-09-12T04:32:47;100671.78;;;25.33;36.48
69239;BME280;56349;51.816;-0.026;2022-09-12T04:35:13;100671.21;;;25.28;36.52
69239;BME280;56349;51.816;-0.026;2022-09-12T04:37:38;100672.35;;;25.25;36.55
69239;BME280;56349;51.816;-0.026;2022-09-12T04:40:05;100669.16;;;25.21;36.58
69239;BME280;56349;51.816;-0.026;2022-09-12T04:42:30;100666.24;;;25.18;36.60
69239;BME280;56349;51.816;-0.026;2022-09-12T04:44:56;100668.23;;;25.37;36.64
69239;BME280;56349;51.816;-0.026;2022-09-12T04:47:21;100669.40;;;25.12;36.65
69239;BME280;56349;51.816;-0.026;2022-09-12T04:49:48;100665.58;;;25.04;36.72
69239;BME280;56349;51.816;-0.026;2022-09-12T04:52:13;100667.17;;;25.22;36.77
69239;BME280;56349;51.816;-0.026;2022-09-12T04:54:39;100671.69;;;25.17;36.82
69239;BME280;56349;51.816;-0.026;2022-09-12T04:57:05;100671.97;;;25.36;36.85
69239;BME280;56349;51.816;-0.026;2022-09-12T04:59:30;100674.29;;;24.87;36.90
69239;BME280;56349;51.816;-0.026;2022-09-12T05:01:56;100675.24;;;24.84;36.93
69239;BME280;56349;51.816;-0.026;2022-09-12T05:04:22;100676.50;;;25.25;36.98
69239;BME280;56349;51.816;-0.026;2022-09-12T05:06:47;100674.63;;;24.78;37.02
69239;BME280;56349;51.816;-0.026;2022-09-12T05:09:14;100674.11;;;24.76;37.03
69239;BME280;56349;51.816;-0.026;2022-09-12T05:11:41;100678.66;;;24.73;37.06
69239;BME280;56349;51.816;-0.026;2022-09-12T05:14:04;100678.13;;;25.16;37.08
69239;BME280;56349;51.816;-0.026;2022-09-12T05:16:29;100678.01;;;24.92;37.10
69239;BME280;56349;51.816;-0.026;2022-09-12T05:18:55;100677.46;;;25.13;37.11
69239;BME280;56349;51.816;-0.026;2022-09-12T05:21:21;100676.63;;;24.88;37.14
69239;BME280;56349;51.816;-0.026;2022-09-12T05:23:46;100673.36;;;25.07;37.17
69239;BME280;56349;51.816;-0.026;2022-09-12T05:26:13;100672.92;;;24.60;37.19
69239;BME280;56349;51.816;-0.026;2022-09-12T05:28:38;100675.28;;;25.02;37.21
69239;BME280;56349;51.816;-0.026;2022-09-12T05:31:05;100675.83;;;24.57;37.22
69239;BME280;56349;51.816;-0.026;2022-09-12T05:33:29;100679.59;;;24.99;37.25
69239;BME280;56349;51.816;-0.026;2022-09-12T05:35:55;100682.43;;;24.96;37.28
69239;BME280;56349;51.816;-0.026;2022-09-12T05:38:20;100682.75;;;24.50;37.31
69239;BME280;56349;51.816;-0.026;2022-09-12T05:40:46;100683.07;;;24.46;37.35
69239;BME280;56349;51.816;-0.026;2022-09-12T05:43:12;100681.79;;;24.89;37.38
69239;BME280;56349;51.816;-0.026;2022-09-12T05:45:42;100682.23;;;24.42;37.40
69239;BME280;56349;51.816;-0.026;2022-09-12T05:48:03;100682.86;;;24.63;37.42
69239;BME280;56349;51.816;-0.026;2022-09-12T05:50:28;100682.56;;;24.62;37.43
69239;BME280;56349;51.816;-0.026;2022-09-12T05:52:53;100686.50;;;24.62;37.43
69239;BME280;56349;51.816;-0.026;2022-09-12T05:55:19;100688.12;;;24.83;37.44
69239;BME280;56349;51.816;-0.026;2022-09-12T05:57:45;100686.22;;;24.36;37.48
69239;BME280;56349;51.816;-0.026;2022-09-12T06:00:13;100683.69;;;24.38;37.44
69239;BME280;56349;51.816;-0.026;2022-09-12T06:02:37;100682.11;;;24.59;37.46
69239;BME280;56349;51.816;-0.026;2022-09-12T06:05:03;100684.87;;;24.80;37.49
69239;BME280;56349;51.816;-0.026;2022-09-12T06:07:28;100684.38;;;24.79;37.49
69239;BME280;56349;51.816;-0.026;2022-09-12T06:09:55;100689.29;;;24.56;37.50
69239;BME280;56349;51.816;-0.026;2022-09-12T06:12:21;100690.15;;;24.54;37.53
69239;BME280;56349;51.816;-0.026;2022-09-12T06:14:47;100691.70;;;24.76;37.54
69239;BME280;56349;51.816;-0.026;2022-09-12T06:17:12;100687.82;;;24.52;37.70
69239;BME280;56349;51.816;-0.026;2022-09-12T06:19:38;100689.72;;;24.76;37.85
69239;BME280;56349;51.816;-0.026;2022-09-12T06:22:04;100692.45;;;24.79;38.07
69239;BME280;56349;51.816;-0.026;2022-09-12T06:24:31;100696.46;;;24.83;38.25
69239;BME280;56349;51.816;-0.026;2022-09-12T06:26:56;100693.04;;;24.70;38.46
69239;BME280;56349;51.816;-0.026;2022-09-12T06:29:21;100692.60;;;25.02;38.60
69239;BME280;56349;51.816;-0.026;2022-09-12T06:31:46;100693.99;;;24.72;38.79
69239;BME280;56349;51.816;-0.026;2022-09-12T06:34:13;100694.88;;;25.02;38.39
69239;BME280;56349;51.816;-0.026;2022-09-12T06:36:40;100697.34;;;25.08;38.05
69239;BME280;56349;51.816;-0.026;2022-09-12T06:39:04;100698.39;;;25.07;37.81
69239;BME280;56349;51.816;-0.026;2022-09-12T06:41:29;100701.73;;;25.41;37.44
69239;BME280;56349;51.816;-0.026;2022-09-12T06:43:53;100698.07;;;25.68;37.02
69239;BME280;56349;51.816;-0.026;2022-09-12T06:46:18;100691.63;;;25.81;36.80
69239;BME280;56349;51.816;-0.026;2022-09-12T06:48:44;100686.24;;;25.91;36.63
69239;BME280;56349;51.816;-0.026;2022-09-12T06:51:10;100683.84;;;26.03;36.45
69239;BME280;56349;51.816;-0.026;2022-09-12T06:53:35;100676.00;;;26.18;36.17
69239;BME280;56349;51.816;-0.026;2022-09-12T06:56:02;100673.47;;;26.33;35.92
69239;BME280;56349;51.816;-0.026;2022-09-12T06:58:27;100677.40;;;26.03;35.67
69239;BME280;56349;51.816;-0.026;2022-09-12T07:00:52;100678.46;;;26.69;35.43
69239;BME280;56349;51.816;-0.026;2022-09-12T07:03:17;100679.06;;;26.35;35.20
69239;BME280;56349;51.816;-0.026;2022-09-12T07:05:43;100683.69;;;26.49;35.01
69239;BME280;56349;51.816;-0.026;2022-09-12T07:08:08;100684.08;;;26.62;34.79
69239;BME280;56349;51.816;-0.026;2022-09-12T07:10:34;100686.85;;;26.74;34.60
69239;BME280;56349;51.816;-0.026;2022-09-12T07:12:59;100688.81;;;26.64;34.41
69239;BME280;56349;51.816;-0.026;2022-09-12T07:15:25;100693.87;;;27.00;34.23
69239;BME280;56349;51.816;-0.026;2022-09-12T07:17:52;100688.79;;;27.11;34.04
69239;BME280;56349;51.816;-0.026;2022-09-12T07:20:17;100687.66;;;27.00;33.88
69239;BME280;56349;51.816;-0.026;2022-09-12T07:22:42;100680.93;;;27.11;33.70
69239;BME280;56349;51.816;-0.026;2022-09-12T07:25:07;100676.64;;;27.19;33.55
69239;BME280;56349;51.816;-0.026;2022-09-12T07:27:32;100675.16;;;27.29;33.42
69239;BME280;56349;51.816;-0.026;2022-09-12T07:29:58;100676.21;;;27.39;33.29
69239;BME280;56349;51.816;-0.026;2022-09-12T07:32:25;100678.76;;;27.50;33.17
69239;BME280;56349;51.816;-0.026;2022-09-12T07:34:50;100678.16;;;27.30;33.37
69239;BME280;56349;51.816;-0.026;2022-09-12T07:37:16;100677.13;;;27.34;33.65
69239;BME280;56349;51.816;-0.026;2022-09-12T07:39:42;100680.58;;;27.39;33.55
69239;BME280;56349;51.816;-0.026;2022-09-12T07:42:08;100685.00;;;27.46;33.31
69239;BME280;56349;51.816;-0.026;2022-09-12T07:44:34;100690.02;;;27.49;33.17
69239;BME280;56349;51.816;-0.026;2022-09-12T07:47:00;100691.10;;;27.55;33.04
69239;BME280;56349;51.816;-0.026;2022-09-12T07:49:26;100691.30;;;27.56;32.99
69239;BME280;56349;51.816;-0.026;2022-09-12T07:51:53;100690.28;;;27.61;32.88
69239;BME280;56349;51.816;-0.026;2022-09-12T07:54:18;100693.26;;;27.68;32.76
69239;BME280;56349;51.816;-0.026;2022-09-12T07:56:43;100694.16;;;27.72;32.67
69239;BME280;56349;51.816;-0.026;2022-09-12T07:59:09;100697.14;;;28.01;32.64
69239;BME280;56349;51.816;-0.026;2022-09-12T08:01:35;100697.30;;;27.79;32.60
69239;BME280;56349;51.816;-0.026;2022-09-12T08:04:02;100700.09;;;27.62;32.62
69239;BME280;56349;51.816;-0.026;2022-09-12T08:06:28;100702.49;;;27.67;32.51
69239;BME280;56349;51.816;-0.026;2022-09-12T08:08:55;100705.84;;;27.95;32.38
69239;BME280;56349;51.816;-0.026;2022-09-12T08:11:19;100703.17;;;27.97;32.31
69239;BME280;56349;51.816;-0.026;2022-09-12T08:13:44;100700.15;;;28.01;32.24
69239;BME280;56349;51.816;-0.026;2022-09-12T08:16:11;100698.33;;;28.04;32.17
69239;BME280;56349;51.816;-0.026;2022-09-12T08:18:35;100693.07;;;27.82;32.09
69239;BME280;56349;51.816;-0.026;2022-09-12T08:21:02;100686.98;;;28.07;31.92
69239;BME280;56349;51.816;-0.026;2022-09-12T08:23:26;100680.05;;;27.83;31.83
69239;BME280;56349;51.816;-0.026;2022-09-12T08:25:54;100674.86;;;28.07;31.68
69239;BME280;56349;51.816;-0.026;2022-09-12T08:28:17;100666.18;;;28.06;31.56
69239;BME280;56349;51.816;-0.026;2022-09-12T08:30:42;100657.45;;;28.00;31.77
69239;BME280;56349;51.816;-0.026;2022-09-12T08:33:08;100654.71;;;27.89;31.78
69239;BME280;56349;51.816;-0.026;2022-09-12T08:35:35;100652.60;;;27.75;31.82
69239;BME280;56349;51.816;-0.026;2022-09-12T08:38:01;100650.75;;;27.52;32.09
69239;BME280;56349;51.816;-0.026;2022-09-12T08:40:27;100646.91;;;27.55;32.40
69239;BME280;56349;51.816;-0.026;2022-09-12T08:42:59;100652.14;;;27.15;32.61
69239;BME280;56349;51.816;-0.026;2022-09-12T08:45:21;100658.60;;;27.56;32.76
69239;BME280;56349;51.816;-0.026;2022-09-12T08:47:44;100659.06;;;27.28;32.90
69239;BME280;56349;51.816;-0.026;2022-09-12T08:50:15;100661.06;;;27.52;33.08
69239;BME280;56349;51.816;-0.026;2022-09-12T08:52:39;100663.82;;;27.31;33.07
69239;BME280;56349;51.816;-0.026;2022-09-12T08:55:01;100666.20;;;27.33;33.13
69239;BME280;56349;51.816;-0.026;2022-09-12T08:57:25;100665.04;;;27.37;33.14
69239;BME280;56349;51.816;-0.026;2022-09-12T08:59:51;100663.00;;;27.16;33.12
69239;BME280;56349;51.816;-0.026;2022-09-12T09:02:31;100662.86;;;27.23;33.11
69239;BME280;56349;51.816;-0.026;2022-09-12T09:04:46;100660.61;;;27.28;33.07
69239;BME280;56349;51.816;-0.026;2022-09-12T09:07:15;100658.34;;;27.36;33.01
69239;BME280;56349;51.816;-0.026;2022-09-12T09:09:42;100663.23;;;27.68;32.98
69239;BME280;56349;51.816;-0.026;2022-09-12T09:12:04;100660.33;;;27.44;32.97
69239;BME280;56349;51.816;-0.026;2022-09-12T09:14:39;100666.97;;;27.51;32.91
69239;BME280;56349;51.816;-0.026;2022-09-12T09:16:51;100666.30;;;27.84;32.87
69239;BME280;56349;51.816;-0.026;2022-09-12T09:19:19;100664.17;;;27.61;32.83
69239;BME280;56349;51.816;-0.026;2022-09-12T09:21:43;100660.88;;;27.72;32.73
69239;BME280;56349;51.816;-0.026;2022-09-12T09:24:08;100661.02;;;27.80;32.62
69239;BME280;56349;51.816;-0.026;2022-09-12T09:26:40;100657.42;;;27.65;32.50
69239;BME280;56349;51.816;-0.026;2022-09-12T09:29:00;100653.60;;;27.91;32.47
69239;BME280;56349;51.816;-0.026;2022-09-12T09:31:24;100656.40;;;27.94;32.34
69239;BME280;56349;51.816;-0.026;2022-09-12T09:33:50;100656.57;;;27.91;32.26
69239;BME280;56349;51.816;-0.026;2022-09-12T09:36:19;100651.89;;;27.80;32.22
69239;BME280;56349;51.816;-0.026;2022-09-12T09:38:47;100652.05;;;27.71;32.22
69239;BME280;56349;51.816;-0.026;2022-09-12T09:41:18;100649.62;;;27.82;32.27
69239;BME280;56349;51.816;-0.026;2022-09-12T09:43:31;100653.68;;;27.67;32.35
69239;BME280;56349;51.816;-0.026;2022-09-12T09:45:57;100656.70;;;27.50;32.44
69239;BME280;56349;51.816;-0.026;2022-09-12T09:48:26;100651.94;;;27.32;32.57
69239;BME280;56349;51.816;-0.026;2022-09-12T09:50:48;100644.17;;;27.14;32.70
69239;BME280;56349;51.816;-0.026;2022-09-12T09:53:24;100640.47;;;27.20;32.84
69239;BME280;56349;51.816;-0.026;2022-09-12T09:55:41;100640.34;;;27.03;32.99
69239;BME280;56349;51.816;-0.026;2022-09-12T09:58:05;100631.88;;;26.87;33.11
69239;BME280;56349;51.816;-0.026;2022-09-12T10:00:33;100631.85;;;26.68;33.29
69239;BME280;56349;51.816;-0.026;2022-09-12T10:03:05;100628.65;;;27.05;33.40
69239;BME280;56349;51.816;-0.026;2022-09-12T10:05:23;100623.66;;;26.66;33.57
69239;BME280;56349;51.816;-0.026;2022-09-12T10:07:49;100626.48;;;26.54;33.70
69239;BME280;56349;51.816;-0.026;2022-09-12T10:10:16;100623.78;;;26.62;33.84
69239;BME280;56349;51.816;-0.026;2022-09-12T10:12:40;100626.75;;;26.28;33.98
69239;BME280;56349;51.816;-0.026;2022-09-12T10:15:15;100622.92;;;26.37;34.11
69239;BME280;56349;51.816;-0.026;2022-09-12T10:17:38;100619.13;;;26.04;34.23
69239;BME280;56349;51.816;-0.026;2022-09-12T10:19:57;100613.73;;;26.18;34.35
69239;BME280;56349;51.816;-0.026;2022-09-12T10:22:23;100613.78;;;26.10;34.44
69239;BME280;56349;51.816;-0.026;2022-09-12T10:24:49;100623.52;;;26.02;34.52
69239;BME280;56349;51.816;-0.026;2022-09-12T10:27:15;100625.40;;;26.13;34.65
69239;BME280;56349;51.816;-0.026;2022-09-12T10:29:40;100623.73;;;26.06;34.74
69239;BME280;56349;51.816;-0.026;2022-09-12T10:32:06;100618.88;;;25.76;34.85
69239;BME280;56349;51.816;-0.026;2022-09-12T10:34:34;100616.69;;;25.69;34.94
69239;BME280;56349;51.816;-0.026;2022-09-12T10:37:01;100610.52;;;25.64;35.01
69239;BME280;56349;51.816;-0.026;2022-09-12T10:39:21;100597.56;;;25.79;35.08
69239;BME280;56349;51.816;-0.026;2022-09-12T10:41:47;100593.03;;;25.71;35.20
69239;BME280;56349;51.816;-0.026;2022-09-12T10:44:16;100596.63;;;25.65;35.29
69239;BME280;56349;51.816;-0.026;2022-09-12T10:46:38;100596.01;;;25.60;35.35
69239;BME280;56349;51.816;-0.026;2022-09-12T10:49:16;100595.53;;;25.54;35.42
69239;BME280;56349;51.816;-0.026;2022-09-12T10:51:30;100598.75;;;25.51;35.47
69239;BME280;56349;51.816;-0.026;2022-09-12T10:53:58;100601.87;;;25.75;35.51
69239;BME280;56349;51.816;-0.026;2022-09-12T10:56:24;100612.95;;;25.71;35.57
69239;BME280;56349;51.816;-0.026;2022-09-12T11:01:21;100616.54;;;25.65;35.68
69239;BME280;56349;51.816;-0.026;2022-09-12T11:03:51;100612.21;;;25.34;35.74
69239;BME280;56349;51.816;-0.026;2022-09-12T11:06:04;100608.34;;;25.30;35.81
69239;BME280;56349;51.816;-0.026;2022-09-12T11:08:40;100606.98;;;25.54;35.83
69239;BME280;56349;51.816;-0.026;2022-09-12T11:11:00;100605.91;;;25.50;35.89
69239;BME280;56349;51.816;-0.026;2022-09-12T11:13:30;100597.76;;;25.46;35.94
69239;BME280;56349;51.816;-0.026;2022-09-12T11:15:57;100591.08;;;25.18;35.97
69239;BME280;56349;51.816;-0.026;2022-09-12T11:18:19;100589.72;;;25.42;36.01
69239;BME280;56349;51.816;-0.026;2022-09-12T11:20:48;100586.46;;;25.13;36.04
69239;BME280;56349;51.816;-0.026;2022-09-12T11:25:30;100587.61;;;25.09;36.12
69239;BME280;56349;51.816;-0.026;2022-09-12T11:28:02;100588.01;;;25.36;36.14
69239;BME280;56349;51.816;-0.026;2022-09-12T11:30:19;100587.62;;;25.35;36.16
69239;BME280;56349;51.816;-0.026;2022-09-12T11:35:18;100589.70;;;25.09;36.21
69239;BME280;56349;51.816;-0.026;2022-09-12T11:37:47;100588.29;;;25.38;36.20
69239;BME280;56349;51.816;-0.026;2022-09-12T11:40:08;100585.19;;;25.38;36.20
69239;BME280;56349;51.816;-0.026;2022-09-12T11:42:31;100585.49;;;25.39;36.20
69239;BME280;56349;51.816;-0.026;2022-09-12T11:44:57;100584.47;;;25.40;36.19
69239;BME280;56349;51.816;-0.026;2022-09-12T11:47:18;100583.38;;;25.38;36.23
69239;BME280;56349;51.816;-0.026;2022-09-12T11:49:46;100579.99;;;25.39;36.23
69239;BME280;56349;51.816;-0.026;2022-09-12T11:52:13;100577.24;;;25.39;36.21
69239;BME280;56349;51.816;-0.026;2022-09-12T11:54:37;100574.28;;;25.39;36.22
69239;BME280;56349;51.816;-0.026;2022-09-12T11:57:04;100577.81;;;25.38;36.25
69239;BME280;56349;51.816;-0.026;2022-09-12T11:59:32;100579.50;;;25.37;36.27
69239;BME280;56349;51.816;-0.026;2022-09-12T12:01:52;100584.06;;;25.37;36.28
69239;BME280;56349;51.816;-0.026;2022-09-12T12:04:21;100586.06;;;25.36;36.28
69239;BME280;56349;51.816;-0.026;2022-09-12T12:06:48;100581.65;;;25.35;36.31
69239;BME280;56349;51.816;-0.026;2022-09-12T12:09:06;100578.19;;;25.33;36.33
69239;BME280;56349;51.816;-0.026;2022-09-12T12:11:35;100572.39;;;25.34;36.33
69239;BME280;56349;51.816;-0.026;2022-09-12T12:14:01;100571.15;;;25.33;36.34
69239;BME280;56349;51.816;-0.026;2022-09-12T12:16:27;100570.47;;;25.33;36.36
69239;BME280;56349;51.816;-0.026;2022-09-12T12:18:54;100573.75;;;25.33;36.36
69239;BME280;56349;51.816;-0.026;2022-09-12T12:21:26;100568.75;;;25.33;36.38
69239;BME280;56349;51.816;-0.026;2022-09-12T12:30:59;100574.09;;;25.37;36.40
69239;BME280;56349;51.816;-0.026;2022-09-12T12:40:40;100564.03;;;25.25;36.51
69239;BME280;56349;51.816;-0.026;2022-09-12T12:48:00;100561.85;;;25.67;36.27
69239;BME280;56349;51.816;-0.026;2022-09-12T12:50:24;100563.88;;;25.62;36.14
69239;BME280;56349;51.816;-0.026;2022-09-12T12:52:50;100563.96;;;25.81;35.98
69239;BME280;56349;51.816;-0.026;2022-09-12T12:55:14;100562.74;;;25.99;35.79
69239;BME280;56349;51.816;-0.026;2022-09-12T12:57:46;100561.03;;;26.18;35.60
69239;BME280;56349;51.816;-0.026;2022-09-12T13:00:06;100556.90;;;25.87;35.40
69239;BME280;56349;51.816;-0.026;2022-09-12T13:02:33;100555.51;;;26.06;35.18